King of Scandinavia — OVOL2 — position and weather

sailwx.info

Track history (hours):
 
Tides and Currents Weather Stations Pressure Air Temp Water Temp Dewpoint Dewpoint Depression Visibility Wind Speed Wind Dir Waves Ship Positions

King of Scandinavia

Ship's website: http://www.dfds.co.uk/DSW/EN/OnBoard/na/KING.htm

Last reported at 2017-Oct-20 17:20 UTC. Time now 2017-Oct-20 19:51 UTC.
Position N 52°43' E 004°04'.

Length 166 m; beam 27.6 m; draft 6.2 m.

Type: Ship. MMSI: 220449000.

Date/timePositionNaut miles runAvg speedWind from/ knotsBaromVisibWave heightAir tempDewpointWater temp
2017-Oct-20 17:20N 52°43' E 004°04'515.2
2017-Oct-20 17:00N 52°39' E 004°10'815.3
2017-Oct-20 16:30N 52°34' E 004°20'715.0
2017-Oct-20 16:01N 52°29' E 004°29'4 8.1
2017-Oct-20 15:31N 52°28' E 004°35'0 0.0
2017-Oct-20 15:01N 52°28' E 004°35'0 0.0
2017-Oct-20 13:58N 52°28' E 004°35'0 0.0
2017-Oct-20 13:28N 52°28' E 004°35'0 0.0
2017-Oct-20 12:58N 52°28' E 004°35'0 0.0
2017-Oct-20 12:25N 52°28' E 004°35'0 0.0
2017-Oct-20 11:58N 52°28' E 004°35'0 0.0
2017-Oct-20 11:28N 52°28' E 004°35'0 0.0
2017-Oct-20 10:55N 52°28' E 004°35'0 0.0
2017-Oct-20 10:28N 52°28' E 004°35'0 0.0
2017-Oct-20 09:58N 52°28' E 004°35'0 0.0
2017-Oct-20 09:28N 52°28' E 004°35'0 0.0
2017-Oct-20 08:58N 52°28' E 004°35'0 0.0
2017-Oct-20 08:28N 52°28' E 004°35'0 0.0
2017-Oct-20 07:58N 52°28' E 004°35'0 0.4
2017-Oct-20 07:30N 52°28' E 004°35'5 9.5
2017-Oct-20 07:00N 52°29' E 004°27'917.8
2017-Oct-20 06:30N 52°36' E 004°18'918.4
2017-Oct-20 06:00N 52°41' E 004°05'918.0
2017-Oct-20 05:30N 52°47' E 003°54'14817.3
2017-Oct-19 20:57N 54°17' E 000°37'817.7
2017-Oct-19 20:30N 54°21' E 000°25'917.6
2017-Oct-19 20:00N 54°26' E 000°13'917.8
2017-Oct-19 19:30N 54°30' W 000°00'917.9
2017-Oct-19 19:00N 54°35' W 000°13'918.2
2017-Oct-19 18:30N 54°40' W 000°27'1818.7
2017-Oct-19 17:34N 54°49' W 000°53'118.5
2017-Oct-19 17:30N 54°50' W 000°54'918.9
2017-Oct-19 17:00N 54°55' W 001°08'1019.1
2017-Oct-19 16:30N 55°00' W 001°22'3 5.9
2017-Oct-19 16:01N 54°59' W 001°27'0 0.1
2017-Oct-19 15:30N 54°59' W 001°27'0 0.0
2017-Oct-19 14:55N 54°59' W 001°27'0 0.0
2017-Oct-19 14:25N 54°59' W 001°27'0 0.0
2017-Oct-19 13:55N 54°59' W 001°27'0 0.0
2017-Oct-19 13:25N 54°59' W 001°27'0 0.0
2017-Oct-19 12:58N 54°59' W 001°27'0 0.0
2017-Oct-19 12:28N 54°59' W 001°27'0 0.0
2017-Oct-19 11:58N 54°59' W 001°27'0 0.0
2017-Oct-19 11:28N 54°59' W 001°27'0 0.0
2017-Oct-19 10:58N 54°59' W 001°27'0 0.0
2017-Oct-19 10:28N 54°59' W 001°27'0 0.0
2017-Oct-19 09:58N 54°59' W 001°27'0 0.0
2017-Oct-19 09:28N 54°59' W 001°27'0 0.0
2017-Oct-19 08:58N 54°59' W 001°27'0 0.0
2017-Oct-19 08:28N 54°59' W 001°27'0 0.4
2017-Oct-19 08:00N 54°60' W 001°27'4 8.3
2017-Oct-19 07:30N 55°00' W 001°20'612.6
2017-Oct-19 07:00N 54°57' W 001°10'611.5
2017-Oct-19 06:30N 54°54' W 001°01'917.0
2017-Oct-19 05:57N 54°49' W 000°48'2116.6
2017-Oct-19 04:39N 54°37' W 000°17'216.1
2017-Oct-19 04:30N 54°36' W 000°13'816.0
2017-Oct-19 04:00N 54°31' W 000°02'816.0
2017-Oct-19 03:30N 54°27' E 000°10'815.9
2017-Oct-19 03:00N 54°23' E 000°21'15716.9
2017-Oct-18 17:41N 52°48' E 003°53'316.5
2017-Oct-18 17:30N 52°46' E 003°57'815.9
2017-Oct-18 17:00N 52°41' E 004°07'714.1
2017-Oct-18 16:30N 52°37' E 004°15'714.3
2017-Oct-18 16:00N 52°32' E 004°25'713.3
2017-Oct-18 15:31N 52°28' E 004°33'1 2.7
2017-Oct-18 15:00N 52°28' E 004°35'0 0.0
2017-Oct-18 14:00N 52°28' E 004°35'0 0.0
2017-Oct-18 13:30N 52°28' E 004°35'0 0.0
2017-Oct-18 13:00N 52°28' E 004°35'0 0.0
2017-Oct-18 12:30N 52°28' E 004°35'0 0.0
2017-Oct-18 12:00N 52°28' E 004°35'0 0.0
2017-Oct-18 11:30N 52°28' E 004°35'0 0.0
2017-Oct-18 11:00N 52°28' E 004°35'0 0.0
2017-Oct-18 10:30N 52°28' E 004°35'0 0.0
2017-Oct-18 10:00N 52°28' E 004°35'0 0.0
2017-Oct-18 09:30N 52°28' E 004°35'0 0.0
2017-Oct-18 09:00N 52°28' E 004°35'0 0.0
2017-Oct-18 08:30N 52°28' E 004°35'0 0.0
2017-Oct-18 08:00N 52°28' E 004°35'0 0.3
2017-Oct-18 07:31N 52°28' E 004°35'4 8.8
2017-Oct-18 07:00N 52°29' E 004°28'917.5
2017-Oct-18 06:30N 52°35' E 004°18'917.2
2017-Oct-18 06:00N 52°40' E 004°06'917.1
2017-Oct-18 05:30N 52°46' E 003°56'917.7
2017-Oct-18 05:00N 52°52' E 003°45'917.7
2017-Oct-18 04:30N 52°58' E 003°34'917.8
2017-Oct-18 04:00N 53°04' E 003°23'12017.0
2017-Oct-17 20:58N 54°15' E 000°41'817.0
2017-Oct-17 20:30N 54°19' E 000°30'817.0
2017-Oct-17 20:00N 54°24' E 000°18'917.0
2017-Oct-17 19:30N 54°29' E 000°06'917.1
2017-Oct-17 19:00N 54°34' W 000°07'917.2
2017-Oct-17 18:30N 54°38' W 000°19'2017.5
2017-Oct-17 17:23N 54°48' W 000°49'717.7
2017-Oct-17 17:00N 54°52' W 000°59'917.7
2017-Oct-17 16:30N 54°57' W 001°12'816.8
2017-Oct-17 16:00N 55°01' W 001°24'2 4.1
2017-Oct-17 15:30N 54°59' W 001°27'0 0.0
2017-Oct-17 14:49N 54°59' W 001°27'0 0.0
2017-Oct-17 14:19N 54°59' W 001°27'0 0.0
2017-Oct-17 13:52N 54°59' W 001°27'0 0.0
2017-Oct-17 13:22N 54°59' W 001°27'0 0.0
2017-Oct-17 12:58N 54°59' W 001°27'0 0.0
2017-Oct-17 12:28N 54°59' W 001°27'0 0.0
2017-Oct-17 11:52N 54°59' W 001°27'0 0.0
2017-Oct-17 11:22N 54°59' W 001°27'0 0.0
2017-Oct-17 10:55N 54°59' W 001°27'0 0.0
2017-Oct-17 10:25N 54°59' W 001°27'0 0.0
2017-Oct-17 09:55N 54°59' W 001°27'0 0.0
2017-Oct-17 09:22N 54°59' W 001°27'0 0.0
2017-Oct-17 09:00N 54°59' W 001°27'1 2.8
2017-Oct-17 08:30N 55°01' W 001°26'5 9.9
2017-Oct-17 08:00N 54°59' W 001°17'511.0
2017-Oct-17 07:30N 54°56' W 001°09'713.1
2017-Oct-17 07:01N 54°53' W 000°59'611.4
2017-Oct-17 06:30N 54°50' W 000°51'2013.9
2017-Oct-17 05:04N 54°39' W 000°21'114.3
2017-Oct-17 05:00N 54°39' W 000°20'713.9
2017-Oct-17 04:28N 54°35' W 000°09'817.7
2017-Oct-17 04:01N 54°30' E 000°02'917.5
2017-Oct-17 03:30N 54°26' E 000°15'917.5
2017-Oct-17 03:01N 54°21' E 000°28'12218.3
2017-Oct-16 20:21N 53°09' E 003°14'718.3
2017-Oct-16 19:58N 53°04' E 003°23'917.8
2017-Oct-16 19:29N 52°59' E 003°34'917.9
2017-Oct-16 18:59N 52°54' E 003°46'2014.8
2017-Oct-16 17:39N 52°40' E 004°09'319.2
2017-Oct-16 17:30N 52°38' E 004°13'816.4
2017-Oct-16 17:00N 52°33' E 004°23'816.4
2017-Oct-16 16:30N 52°28' E 004°34'1 1.8
2017-Oct-16 16:00N 52°28' E 004°35'0 0.0
2017-Oct-16 15:30N 52°28' E 004°35'0 0.0
2017-Oct-16 15:00N 52°28' E 004°35'0 0.0
2017-Oct-16 14:30N 52°28' E 004°35'0 0.0
2017-Oct-16 13:30N 52°28' E 004°35'0 0.0
2017-Oct-16 13:00N 52°28' E 004°35'0 0.0
2017-Oct-16 12:30N 52°28' E 004°35'0 0.0
2017-Oct-16 12:00N 52°28' E 004°35'0 0.0
2017-Oct-16 11:30N 52°28' E 004°35'0 0.0
2017-Oct-16 11:00N 52°28' E 004°35'0 0.0
2017-Oct-16 10:30N 52°28' E 004°35'0 0.0
2017-Oct-16 10:00N 52°28' E 004°35'0 0.0
2017-Oct-16 09:30N 52°28' E 004°35'0 0.0
2017-Oct-16 09:00N 52°28' E 004°35'0 0.0
2017-Oct-16 08:30N 52°28' E 004°35'0 0.0
2017-Oct-16 08:00N 52°28' E 004°35'0 0.1
2017-Oct-16 07:30N 52°28' E 004°35'4 7.4
2017-Oct-16 07:01N 52°28' E 004°29'917.2
2017-Oct-16 06:31N 52°35' E 004°19'917.6
2017-Oct-16 06:00N 52°41' E 004°09'917.6
2017-Oct-16 05:30N 52°46' E 003°57'14717.8
2017-Oct-15 21:16N 54°15' E 000°42'417.6
2017-Oct-15 21:00N 54°18' E 000°35'917.6
2017-Oct-15 20:30N 54°22' E 000°22'917.4
2017-Oct-15 20:00N 54°27' E 000°10'917.1
2017-Oct-15 19:31N 54°32' W 000°03'917.3
2017-Oct-15 19:01N 54°36' W 000°15'917.2
2017-Oct-15 18:30N 54°41' W 000°28'1317.2
2017-Oct-15 17:44N 54°48' W 000°47'417.5
2017-Oct-15 17:30N 54°50' W 000°53'917.6
2017-Oct-15 17:00N 54°55' W 001°06'917.5
2017-Oct-15 16:30N 54°59' W 001°19'5 9.2
2017-Oct-15 16:01N 54°60' W 001°27'0 0.4
2017-Oct-15 15:30N 54°59' W 001°27'0 0.0
2017-Oct-15 14:56N 54°59' W 001°27'0 0.0
2017-Oct-15 13:59N 54°59' W 001°27'0 0.0
2017-Oct-15 13:29N 54°59' W 001°27'0 0.0
2017-Oct-15 12:59N 54°59' W 001°27'0 0.0
2017-Oct-15 12:29N 54°59' W 001°27'0 0.0
2017-Oct-15 11:59N 54°59' W 001°27'0 0.0
2017-Oct-15 11:20N 54°59' W 001°27'0 0.0
2017-Oct-15 10:50N 54°59' W 001°27'0 0.0
2017-Oct-15 10:17N 54°59' W 001°27'0 0.0
2017-Oct-15 09:53N 54°59' W 001°27'0 0.0
2017-Oct-15 09:23N 54°59' W 001°27'0 0.0
2017-Oct-15 08:53N 54°59' W 001°27'0 0.0
2017-Oct-15 08:30N 54°59' W 001°27'2 3.7
2017-Oct-15 08:00N 55°01' W 001°25'714.5
2017-Oct-15 07:30N 54°59' W 001°12'714.0
2017-Oct-15 07:00N 54°55' W 001°03'713.6
2017-Oct-15 06:30N 54°51' W 000°54'713.8
2017-Oct-15 06:01N 54°47' W 000°44'1514.7
2017-Oct-15 04:59N 54°39' W 000°22'715.5
2017-Oct-15 04:30N 54°35' W 000°11'815.3
2017-Oct-15 04:00N 54°31' E 000°00'815.2
2017-Oct-15 03:30N 54°27' E 000°11'815.0
2017-Oct-15 03:00N 54°23' E 000°22'15717.2
2017-Oct-14 17:54N 52°49' E 003°53'614.6
2017-Oct-14 17:30N 52°45' E 004°00'713.7
2017-Oct-14 17:00N 52°40' E 004°09'714.0
2017-Oct-14 16:30N 52°36' E 004°17'713.9
2017-Oct-14 16:00N 52°31' E 004°26'612.3
2017-Oct-14 15:31N 52°28' E 004°35'0 0.5
2017-Oct-14 15:00N 52°28' E 004°35'0 0.0
2017-Oct-14 14:28N 52°28' E 004°35'0 0.0
2017-Oct-14 13:58N 52°28' E 004°35'0 0.0
2017-Oct-14 13:28N 52°28' E 004°35'0 0.0
2017-Oct-14 12:58N 52°28' E 004°35'0 0.0
2017-Oct-14 12:28N 52°28' E 004°35'0 0.0
2017-Oct-14 11:58N 52°28' E 004°35'0 0.0
2017-Oct-14 11:28N 52°28' E 004°35'0 0.0
2017-Oct-14 10:58N 52°28' E 004°35'0 0.0
2017-Oct-14 10:28N 52°28' E 004°35'0 0.0
2017-Oct-14 09:58N 52°28' E 004°35'0 0.0
2017-Oct-14 09:28N 52°28' E 004°35'0 0.0
2017-Oct-14 08:58N 52°28' E 004°35'0 0.0
2017-Oct-14 08:28N 52°28' E 004°35'0 0.0
2017-Oct-14 07:58N 52°28' E 004°35'0 0.3
2017-Oct-14 07:30N 52°28' E 004°35'612.0
2017-Oct-14 07:00N 52°30' E 004°26'816.9
2017-Oct-14 06:30N 52°36' E 004°16'917.2
2017-Oct-14 06:00N 52°42' E 004°05'917.3
2017-Oct-14 05:30N 52°47' E 003°54'917.3
2017-Oct-14 05:00N 52°53' E 003°44'917.4
2017-Oct-14 04:30N 52°59' E 003°33'13017.8
2017-Oct-13 21:12N 54°17' E 000°37'417.8
2017-Oct-13 20:59N 54°19' E 000°31'817.8
2017-Oct-13 20:30N 54°24' E 000°19'918.0
2017-Oct-13 20:00N 54°28' E 000°06'918.1
2017-Oct-13 19:30N 54°33' W 000°08'917.8
2017-Oct-13 19:00N 54°37' W 000°21'1817.8
2017-Oct-13 18:01N 54°47' W 000°46'018.2
2017-Oct-13 18:00N 54°47' W 000°46'917.7
2017-Oct-13 17:30N 54°52' W 000°59'917.7
2017-Oct-13 17:00N 54°57' W 001°12'815.9
2017-Oct-13 16:30N 55°01' W 001°24'2 4.2
2017-Oct-13 16:01N 54°59' W 001°27'0 0.0
2017-Oct-13 15:31N 54°59' W 001°27'0 0.0
2017-Oct-13 14:58N 54°59' W 001°27'0 0.0
2017-Oct-13 14:28N 54°59' W 001°27'0 0.0
2017-Oct-13 13:49N 54°59' W 001°27'0 0.0
2017-Oct-13 13:19N 54°59' W 001°27'0 0.0
2017-Oct-13 12:49N 54°59' W 001°27'0 0.0
2017-Oct-13 12:19N 54°59' W 001°27'0 0.0
2017-Oct-13 11:52N 54°59' W 001°27'0 0.0
2017-Oct-13 11:22N 54°59' W 001°27'0 0.0
2017-Oct-13 10:52N 54°59' W 001°27'0 0.0
2017-Oct-13 10:22N 54°59' W 001°27'0 0.0
2017-Oct-13 09:55N 54°59' W 001°27'0 0.0
2017-Oct-13 09:25N 54°59' W 001°27'0 0.0
2017-Oct-13 08:55N 54°59' W 001°27'0 0.0
2017-Oct-13 08:30N 54°59' W 001°27'4 7.4
2017-Oct-13 08:00N 55°01' W 001°21'816.5
2017-Oct-13 07:30N 54°56' W 001°09'816.5
2017-Oct-13 07:00N 54°52' W 000°57'816.6
2017-Oct-13 06:30N 54°47' W 000°45'1617.2
2017-Oct-13 05:36N 54°39' W 000°22'217.6
2017-Oct-13 05:30N 54°38' W 000°19'917.8
2017-Oct-13 05:00N 54°33' W 000°06'917.7
2017-Oct-13 04:30N 54°28' E 000°06'917.9
2017-Oct-13 04:00N 54°24' E 000°20'16016.8
2017-Oct-12 18:30N 52°48' E 003°56'816.3
2017-Oct-12 18:00N 52°42' E 004°05'816.2
2017-Oct-12 17:30N 52°37' E 004°15'816.0
2017-Oct-12 17:00N 52°32' E 004°25'713.4
2017-Oct-12 16:31N 52°28' E 004°34'1 1.2
2017-Oct-12 16:01N 52°28' E 004°35'0 0.0
2017-Oct-12 15:31N 52°28' E 004°35'0 0.0
2017-Oct-12 15:01N 52°28' E 004°35'0 0.0
2017-Oct-12 14:30N 52°28' E 004°35'0 0.0
2017-Oct-12 14:00N 52°28' E 004°35'0 0.0
2017-Oct-12 13:30N 52°28' E 004°35'0 0.0
2017-Oct-12 12:57N 52°28' E 004°35'0 0.0
2017-Oct-12 12:30N 52°28' E 004°35'0 0.0
2017-Oct-12 12:00N 52°28' E 004°35'0 0.0
2017-Oct-12 11:30N 52°28' E 004°35'0 0.0
2017-Oct-12 11:00N 52°28' E 004°35'0 0.0
2017-Oct-12 10:30N 52°28' E 004°35'0 0.0
2017-Oct-12 10:00N 52°28' E 004°35'0 0.0
2017-Oct-12 09:27N 52°28' E 004°35'0 0.0
2017-Oct-12 08:57N 52°28' E 004°35'0 0.0
2017-Oct-12 08:30N 52°28' E 004°35'0 0.0
2017-Oct-12 07:57N 52°28' E 004°35'0 0.5
2017-Oct-12 07:31N 52°28' E 004°35'3 6.8
2017-Oct-12 07:01N 52°28' E 004°29'714.8
2017-Oct-12 06:31N 52°34' E 004°21'612.6
2017-Oct-12 06:00N 52°38' E 004°14'816.0
2017-Oct-12 05:30N 52°43' E 004°03'917.1
2017-Oct-12 05:00N 52°49' E 003°52'14717.9
2017-Oct-11 20:49N 54°17' E 000°36'618.8
2017-Oct-11 20:30N 54°20' E 000°27'1019.0
2017-Oct-11 20:00N 54°25' E 000°14'1019.1
2017-Oct-11 19:30N 54°31' W 000°00'1019.1
2017-Oct-11 19:00N 54°36' W 000°14'1019.1
2017-Oct-11 18:30N 54°41' W 000°28'1718.7
2017-Oct-11 17:36N 54°50' W 000°53'218.8
2017-Oct-11 17:30N 54°51' W 000°56'918.4
2017-Oct-11 17:00N 54°56' W 001°09'202 9.2
2017-Oct-10 19:10N 52°60' E 003°32'316.8
2017-Oct-10 18:59N 52°57' E 003°36'816.9
2017-Oct-10 18:30N 52°52' E 003°46'815.5
2017-Oct-10 18:00N 52°47' E 003°55'714.3
2017-Oct-10 17:31N 52°43' E 004°04'  
Track history (hours):
 
Tides and Currents Weather Stations Pressure Air Temp Water Temp Dewpoint Dewpoint Depression Visibility Wind Speed Wind Dir Waves Ship Positions

King of Scandinavia

Ship's website: http://www.dfds.co.uk/DSW/EN/OnBoard/na/KING.htm

Last reported at 2017-Oct-20 17:20 UTC. Time now 2017-Oct-20 19:51 UTC.
Position N 52°43' E 004°04'.

Length 166 m; beam 27.6 m; draft 6.2 m.

Type: Ship. MMSI: 220449000.

Date/timePositionNaut miles runAvg speedWind from/ knotsBaromVisibWave heightAir tempDewpointWater temp
2017-Oct-20 17:20N 52°43' E 004°04'515.2
2017-Oct-20 17:00N 52°39' E 004°10'815.3
2017-Oct-20 16:30N 52°34' E 004°20'715.0
2017-Oct-20 16:01N 52°29' E 004°29'4 8.1
2017-Oct-20 15:31N 52°28' E 004°35'0 0.0
2017-Oct-20 15:01N 52°28' E 004°35'0 0.0
2017-Oct-20 13:58N 52°28' E 004°35'0 0.0
2017-Oct-20 13:28N 52°28' E 004°35'0 0.0
2017-Oct-20 12:58N 52°28' E 004°35'0 0.0
2017-Oct-20 12:25N 52°28' E 004°35'0 0.0
2017-Oct-20 11:58N 52°28' E 004°35'0 0.0
2017-Oct-20 11:28N 52°28' E 004°35'0 0.0
2017-Oct-20 10:55N 52°28' E 004°35'0 0.0
2017-Oct-20 10:28N 52°28' E 004°35'0 0.0
2017-Oct-20 09:58N 52°28' E 004°35'0 0.0
2017-Oct-20 09:28N 52°28' E 004°35'0 0.0
2017-Oct-20 08:58N 52°28' E 004°35'0 0.0
2017-Oct-20 08:28N 52°28' E 004°35'0 0.0
2017-Oct-20 07:58N 52°28' E 004°35'0 0.4
2017-Oct-20 07:30N 52°28' E 004°35'5 9.5
2017-Oct-20 07:00N 52°29' E 004°27'917.8
2017-Oct-20 06:30N 52°36' E 004°18'918.4
2017-Oct-20 06:00N 52°41' E 004°05'918.0
2017-Oct-20 05:30N 52°47' E 003°54'14817.3
2017-Oct-19 20:57N 54°17' E 000°37'817.7
2017-Oct-19 20:30N 54°21' E 000°25'917.6
2017-Oct-19 20:00N 54°26' E 000°13'917.8
2017-Oct-19 19:30N 54°30' W 000°00'917.9
2017-Oct-19 19:00N 54°35' W 000°13'918.2
2017-Oct-19 18:30N 54°40' W 000°27'1818.7
2017-Oct-19 17:34N 54°49' W 000°53'118.5
2017-Oct-19 17:30N 54°50' W 000°54'918.9
2017-Oct-19 17:00N 54°55' W 001°08'1019.1
2017-Oct-19 16:30N 55°00' W 001°22'3 5.9
2017-Oct-19 16:01N 54°59' W 001°27'0 0.1
2017-Oct-19 15:30N 54°59' W 001°27'0 0.0
2017-Oct-19 14:55N 54°59' W 001°27'0 0.0
2017-Oct-19 14:25N 54°59' W 001°27'0 0.0
2017-Oct-19 13:55N 54°59' W 001°27'0 0.0
2017-Oct-19 13:25N 54°59' W 001°27'0 0.0
2017-Oct-19 12:58N 54°59' W 001°27'0 0.0
2017-Oct-19 12:28N 54°59' W 001°27'0 0.0
2017-Oct-19 11:58N 54°59' W 001°27'0 0.0
2017-Oct-19 11:28N 54°59' W 001°27'0 0.0
2017-Oct-19 10:58N 54°59' W 001°27'0 0.0
2017-Oct-19 10:28N 54°59' W 001°27'0 0.0
2017-Oct-19 09:58N 54°59' W 001°27'0 0.0
2017-Oct-19 09:28N 54°59' W 001°27'0 0.0
2017-Oct-19 08:58N 54°59' W 001°27'0 0.0
2017-Oct-19 08:28N 54°59' W 001°27'0 0.4
2017-Oct-19 08:00N 54°60' W 001°27'4 8.3
2017-Oct-19 07:30N 55°00' W 001°20'612.6
2017-Oct-19 07:00N 54°57' W 001°10'611.5
2017-Oct-19 06:30N 54°54' W 001°01'917.0
2017-Oct-19 05:57N 54°49' W 000°48'2116.6
2017-Oct-19 04:39N 54°37' W 000°17'216.1
2017-Oct-19 04:30N 54°36' W 000°13'816.0
2017-Oct-19 04:00N 54°31' W 000°02'816.0
2017-Oct-19 03:30N 54°27' E 000°10'815.9
2017-Oct-19 03:00N 54°23' E 000°21'15716.9
2017-Oct-18 17:41N 52°48' E 003°53'316.5
2017-Oct-18 17:30N 52°46' E 003°57'815.9
2017-Oct-18 17:00N 52°41' E 004°07'714.1
2017-Oct-18 16:30N 52°37' E 004°15'714.3
2017-Oct-18 16:00N 52°32' E 004°25'713.3
2017-Oct-18 15:31N 52°28' E 004°33'1 2.7
2017-Oct-18 15:00N 52°28' E 004°35'0 0.0
2017-Oct-18 14:00N 52°28' E 004°35'0 0.0
2017-Oct-18 13:30N 52°28' E 004°35'0 0.0
2017-Oct-18 13:00N 52°28' E 004°35'0 0.0
2017-Oct-18 12:30N 52°28' E 004°35'0 0.0
2017-Oct-18 12:00N 52°28' E 004°35'0 0.0
2017-Oct-18 11:30N 52°28' E 004°35'0 0.0
2017-Oct-18 11:00N 52°28' E 004°35'0 0.0
2017-Oct-18 10:30N 52°28' E 004°35'0 0.0
2017-Oct-18 10:00N 52°28' E 004°35'0 0.0
2017-Oct-18 09:30N 52°28' E 004°35'0 0.0
2017-Oct-18 09:00N 52°28' E 004°35'0 0.0
2017-Oct-18 08:30N 52°28' E 004°35'0 0.0
2017-Oct-18 08:00N 52°28' E 004°35'0 0.3
2017-Oct-18 07:31N 52°28' E 004°35'4 8.8
2017-Oct-18 07:00N 52°29' E 004°28'917.5
2017-Oct-18 06:30N 52°35' E 004°18'917.2
2017-Oct-18 06:00N 52°40' E 004°06'917.1
2017-Oct-18 05:30N 52°46' E 003°56'917.7
2017-Oct-18 05:00N 52°52' E 003°45'917.7
2017-Oct-18 04:30N 52°58' E 003°34'917.8
2017-Oct-18 04:00N 53°04' E 003°23'12017.0
2017-Oct-17 20:58N 54°15' E 000°41'817.0
2017-Oct-17 20:30N 54°19' E 000°30'817.0
2017-Oct-17 20:00N 54°24' E 000°18'917.0
2017-Oct-17 19:30N 54°29' E 000°06'917.1
2017-Oct-17 19:00N 54°34' W 000°07'917.2
2017-Oct-17 18:30N 54°38' W 000°19'2017.5
2017-Oct-17 17:23N 54°48' W 000°49'717.7
2017-Oct-17 17:00N 54°52' W 000°59'917.7
2017-Oct-17 16:30N 54°57' W 001°12'816.8
2017-Oct-17 16:00N 55°01' W 001°24'2 4.1
2017-Oct-17 15:30N 54°59' W 001°27'0 0.0
2017-Oct-17 14:49N 54°59' W 001°27'0 0.0
2017-Oct-17 14:19N 54°59' W 001°27'0 0.0
2017-Oct-17 13:52N 54°59' W 001°27'0 0.0
2017-Oct-17 13:22N 54°59' W 001°27'0 0.0
2017-Oct-17 12:58N 54°59' W 001°27'0 0.0
2017-Oct-17 12:28N 54°59' W 001°27'0 0.0
2017-Oct-17 11:52N 54°59' W 001°27'0 0.0
2017-Oct-17 11:22N 54°59' W 001°27'0 0.0
2017-Oct-17 10:55N 54°59' W 001°27'0 0.0
2017-Oct-17 10:25N 54°59' W 001°27'0 0.0
2017-Oct-17 09:55N 54°59' W 001°27'0 0.0
2017-Oct-17 09:22N 54°59' W 001°27'0 0.0
2017-Oct-17 09:00N 54°59' W 001°27'1 2.8
2017-Oct-17 08:30N 55°01' W 001°26'5 9.9
2017-Oct-17 08:00N 54°59' W 001°17'511.0
2017-Oct-17 07:30N 54°56' W 001°09'713.1
2017-Oct-17 07:01N 54°53' W 000°59'611.4
2017-Oct-17 06:30N 54°50' W 000°51'2013.9
2017-Oct-17 05:04N 54°39' W 000°21'114.3
2017-Oct-17 05:00N 54°39' W 000°20'713.9
2017-Oct-17 04:28N 54°35' W 000°09'817.7
2017-Oct-17 04:01N 54°30' E 000°02'917.5
2017-Oct-17 03:30N 54°26' E 000°15'917.5
2017-Oct-17 03:01N 54°21' E 000°28'12218.3
2017-Oct-16 20:21N 53°09' E 003°14'718.3
2017-Oct-16 19:58N 53°04' E 003°23'917.8
2017-Oct-16 19:29N 52°59' E 003°34'917.9
2017-Oct-16 18:59N 52°54' E 003°46'2014.8
2017-Oct-16 17:39N 52°40' E 004°09'319.2
2017-Oct-16 17:30N 52°38' E 004°13'816.4
2017-Oct-16 17:00N 52°33' E 004°23'816.4
2017-Oct-16 16:30N 52°28' E 004°34'1 1.8
2017-Oct-16 16:00N 52°28' E 004°35'0 0.0
2017-Oct-16 15:30N 52°28' E 004°35'0 0.0
2017-Oct-16 15:00N 52°28' E 004°35'0 0.0
2017-Oct-16 14:30N 52°28' E 004°35'0 0.0
2017-Oct-16 13:30N 52°28' E 004°35'0 0.0
2017-Oct-16 13:00N 52°28' E 004°35'0 0.0
2017-Oct-16 12:30N 52°28' E 004°35'0 0.0
2017-Oct-16 12:00N 52°28' E 004°35'0 0.0
2017-Oct-16 11:30N 52°28' E 004°35'0 0.0
2017-Oct-16 11:00N 52°28' E 004°35'0 0.0
2017-Oct-16 10:30N 52°28' E 004°35'0 0.0
2017-Oct-16 10:00N 52°28' E 004°35'0 0.0
2017-Oct-16 09:30N 52°28' E 004°35'0 0.0
2017-Oct-16 09:00N 52°28' E 004°35'0 0.0
2017-Oct-16 08:30N 52°28' E 004°35'0 0.0
2017-Oct-16 08:00N 52°28' E 004°35'0 0.1
2017-Oct-16 07:30N 52°28' E 004°35'4 7.4
2017-Oct-16 07:01N 52°28' E 004°29'917.2
2017-Oct-16 06:31N 52°35' E 004°19'917.6
2017-Oct-16 06:00N 52°41' E 004°09'917.6
2017-Oct-16 05:30N 52°46' E 003°57'14717.8
2017-Oct-15 21:16N 54°15' E 000°42'417.6
2017-Oct-15 21:00N 54°18' E 000°35'917.6
2017-Oct-15 20:30N 54°22' E 000°22'917.4
2017-Oct-15 20:00N 54°27' E 000°10'917.1
2017-Oct-15 19:31N 54°32' W 000°03'917.3
2017-Oct-15 19:01N 54°36' W 000°15'917.2
2017-Oct-15 18:30N 54°41' W 000°28'1317.2
2017-Oct-15 17:44N 54°48' W 000°47'417.5
2017-Oct-15 17:30N 54°50' W 000°53'917.6
2017-Oct-15 17:00N 54°55' W 001°06'917.5
2017-Oct-15 16:30N 54°59' W 001°19'5 9.2
2017-Oct-15 16:01N 54°60' W 001°27'0 0.4
2017-Oct-15 15:30N 54°59' W 001°27'0 0.0
2017-Oct-15 14:56N 54°59' W 001°27'0 0.0
2017-Oct-15 13:59N 54°59' W 001°27'0 0.0
2017-Oct-15 13:29N 54°59' W 001°27'0 0.0
2017-Oct-15 12:59N 54°59' W 001°27'0 0.0
2017-Oct-15 12:29N 54°59' W 001°27'0 0.0
2017-Oct-15 11:59N 54°59' W 001°27'0 0.0
2017-Oct-15 11:20N 54°59' W 001°27'0 0.0
2017-Oct-15 10:50N 54°59' W 001°27'0 0.0
2017-Oct-15 10:17N 54°59' W 001°27'0 0.0
2017-Oct-15 09:53N 54°59' W 001°27'0 0.0
2017-Oct-15 09:23N 54°59' W 001°27'0 0.0
2017-Oct-15 08:53N 54°59' W 001°27'0 0.0
2017-Oct-15 08:30N 54°59' W 001°27'2 3.7
2017-Oct-15 08:00N 55°01' W 001°25'714.5
2017-Oct-15 07:30N 54°59' W 001°12'714.0
2017-Oct-15 07:00N 54°55' W 001°03'713.6
2017-Oct-15 06:30N 54°51' W 000°54'713.8
2017-Oct-15 06:01N 54°47' W 000°44'1514.7
2017-Oct-15 04:59N 54°39' W 000°22'715.5
2017-Oct-15 04:30N 54°35' W 000°11'815.3
2017-Oct-15 04:00N 54°31' E 000°00'815.2
2017-Oct-15 03:30N 54°27' E 000°11'815.0
2017-Oct-15 03:00N 54°23' E 000°22'15717.2
2017-Oct-14 17:54N 52°49' E 003°53'614.6
2017-Oct-14 17:30N 52°45' E 004°00'713.7
2017-Oct-14 17:00N 52°40' E 004°09'714.0
2017-Oct-14 16:30N 52°36' E 004°17'713.9
2017-Oct-14 16:00N 52°31' E 004°26'612.3
2017-Oct-14 15:31N 52°28' E 004°35'0 0.5
2017-Oct-14 15:00N 52°28' E 004°35'0 0.0
2017-Oct-14 14:28N 52°28' E 004°35'0 0.0
2017-Oct-14 13:58N 52°28' E 004°35'0 0.0
2017-Oct-14 13:28N 52°28' E 004°35'0 0.0
2017-Oct-14 12:58N 52°28' E 004°35'0 0.0
2017-Oct-14 12:28N 52°28' E 004°35'0 0.0
2017-Oct-14 11:58N 52°28' E 004°35'0 0.0
2017-Oct-14 11:28N 52°28' E 004°35'0 0.0
2017-Oct-14 10:58N 52°28' E 004°35'0 0.0
2017-Oct-14 10:28N 52°28' E 004°35'0 0.0
2017-Oct-14 09:58N 52°28' E 004°35'0 0.0
2017-Oct-14 09:28N 52°28' E 004°35'0 0.0
2017-Oct-14 08:58N 52°28' E 004°35'0 0.0
2017-Oct-14 08:28N 52°28' E 004°35'0 0.0
2017-Oct-14 07:58N 52°28' E 004°35'0 0.3
2017-Oct-14 07:30N 52°28' E 004°35'612.0
2017-Oct-14 07:00N 52°30' E 004°26'816.9
2017-Oct-14 06:30N 52°36' E 004°16'917.2
2017-Oct-14 06:00N 52°42' E 004°05'917.3
2017-Oct-14 05:30N 52°47' E 003°54'917.3
2017-Oct-14 05:00N 52°53' E 003°44'917.4
2017-Oct-14 04:30N 52°59' E 003°33'13017.8
2017-Oct-13 21:12N 54°17' E 000°37'417.8
2017-Oct-13 20:59N 54°19' E 000°31'817.8
2017-Oct-13 20:30N 54°24' E 000°19'918.0
2017-Oct-13 20:00N 54°28' E 000°06'918.1
2017-Oct-13 19:30N 54°33' W 000°08'917.8
2017-Oct-13 19:00N 54°37' W 000°21'1817.8
2017-Oct-13 18:01N 54°47' W 000°46'018.2
2017-Oct-13 18:00N 54°47' W 000°46'917.7
2017-Oct-13 17:30N 54°52' W 000°59'917.7
2017-Oct-13 17:00N 54°57' W 001°12'815.9
2017-Oct-13 16:30N 55°01' W 001°24'2 4.2
2017-Oct-13 16:01N 54°59' W 001°27'0 0.0
2017-Oct-13 15:31N 54°59' W 001°27'0 0.0
2017-Oct-13 14:58N 54°59' W 001°27'0 0.0
2017-Oct-13 14:28N 54°59' W 001°27'0 0.0
2017-Oct-13 13:49N 54°59' W 001°27'0 0.0
2017-Oct-13 13:19N 54°59' W 001°27'0 0.0
2017-Oct-13 12:49N 54°59' W 001°27'0 0.0
2017-Oct-13 12:19N 54°59' W 001°27'0 0.0
2017-Oct-13 11:52N 54°59' W 001°27'0 0.0
2017-Oct-13 11:22N 54°59' W 001°27'0 0.0
2017-Oct-13 10:52N 54°59' W 001°27'0 0.0
2017-Oct-13 10:22N 54°59' W 001°27'0 0.0
2017-Oct-13 09:55N 54°59' W 001°27'0 0.0
2017-Oct-13 09:25N 54°59' W 001°27'0 0.0
2017-Oct-13 08:55N 54°59' W 001°27'0 0.0
2017-Oct-13 08:30N 54°59' W 001°27'4 7.4
2017-Oct-13 08:00N 55°01' W 001°21'816.5
2017-Oct-13 07:30N 54°56' W 001°09'816.5
2017-Oct-13 07:00N 54°52' W 000°57'816.6
2017-Oct-13 06:30N 54°47' W 000°45'1617.2
2017-Oct-13 05:36N 54°39' W 000°22'217.6
2017-Oct-13 05:30N 54°38' W 000°19'917.8
2017-Oct-13 05:00N 54°33' W 000°06'917.7
2017-Oct-13 04:30N 54°28' E 000°06'917.9
2017-Oct-13 04:00N 54°24' E 000°20'16016.8
2017-Oct-12 18:30N 52°48' E 003°56'816.3
2017-Oct-12 18:00N 52°42' E 004°05'816.2
2017-Oct-12 17:30N 52°37' E 004°15'816.0
2017-Oct-12 17:00N 52°32' E 004°25'713.4
2017-Oct-12 16:31N 52°28' E 004°34'1 1.2
2017-Oct-12 16:01N 52°28' E 004°35'0 0.0
2017-Oct-12 15:31N 52°28' E 004°35'0 0.0
2017-Oct-12 15:01N 52°28' E 004°35'0 0.0
2017-Oct-12 14:30N 52°28' E 004°35'0 0.0
2017-Oct-12 14:00N 52°28' E 004°35'0 0.0
2017-Oct-12 13:30N 52°28' E 004°35'0 0.0
2017-Oct-12 12:57N 52°28' E 004°35'0 0.0
2017-Oct-12 12:30N 52°28' E 004°35'0 0.0
2017-Oct-12 12:00N 52°28' E 004°35'0 0.0
2017-Oct-12 11:30N 52°28' E 004°35'0 0.0
2017-Oct-12 11:00N 52°28' E 004°35'0 0.0
2017-Oct-12 10:30N 52°28' E 004°35'0 0.0
2017-Oct-12 10:00N 52°28' E 004°35'0 0.0
2017-Oct-12 09:27N 52°28' E 004°35'0 0.0
2017-Oct-12 08:57N 52°28' E 004°35'0 0.0
2017-Oct-12 08:30N 52°28' E 004°35'0 0.0
2017-Oct-12 07:57N 52°28' E 004°35'0 0.5
2017-Oct-12 07:31N 52°28' E 004°35'3 6.8
2017-Oct-12 07:01N 52°28' E 004°29'714.8
2017-Oct-12 06:31N 52°34' E 004°21'612.6
2017-Oct-12 06:00N 52°38' E 004°14'816.0
2017-Oct-12 05:30N 52°43' E 004°03'917.1
2017-Oct-12 05:00N 52°49' E 003°52'14717.9
2017-Oct-11 20:49N 54°17' E 000°36'618.8
2017-Oct-11 20:30N 54°20' E 000°27'1019.0
2017-Oct-11 20:00N 54°25' E 000°14'1019.1
2017-Oct-11 19:30N 54°31' W 000°00'1019.1
2017-Oct-11 19:00N 54°36' W 000°14'1019.1
2017-Oct-11 18:30N 54°41' W 000°28'1718.7
2017-Oct-11 17:36N 54°50' W 000°53'218.8
2017-Oct-11 17:30N 54°51' W 000°56'918.4
2017-Oct-11 17:00N 54°56' W 001°09'202 9.2
2017-Oct-10 19:10N 52°60' E 003°32'316.8
2017-Oct-10 18:59N 52°57' E 003°36'816.9
2017-Oct-10 18:30N 52°52' E 003°46'815.5
2017-Oct-10 18:00N 52°47' E 003°55'714.3
2017-Oct-10 17:31N 52°43' E 004°04'  

Dump ship's entire track history